Time;durP1;ratioP1;P1;durP2;ratioP2;P2;SDS_P1;SDS_P2;PMS_P1;PMS_P2;Temp;Humidity;BMP_temperature;BMP_pressure;BME280_temperature;BME280_humidity;BME280_pressure;Samples;Min_cycle;Max_cycle;Signal;HPM_P1;HPM_P2
2022/03/07 00:01:31;;;;;;;11.05;8.30;;;;;;;;;;4842413;29;20053;-87
2022/03/07 00:04:02;;;;;;;15.65;10.45;;;;;;;;;;4848692;29;20044;-76
2022/03/07 00:06:30;;;;;;;9.65;7.32;;;;;;;;;;4849587;29;20058;-76
2022/03/07 00:08:59;;;;;;;15.45;9.02;;;;;;;;;;4860375;29;20053;-76
2022/03/07 00:11:28;;;;;;;12.82;8.85;;;;;;;;;;4860895;29;20058;-76
2022/03/07 00:13:56;;;;;;;14.60;8.40;;;;;;;;;;4860552;29;20076;-76
2022/03/07 00:16:24;;;;;;;9.93;8.18;;;;;;;;;;4860557;29;20072;-76
2022/03/07 00:18:52;;;;;;;12.52;8.40;;;;;;;;;;4861040;29;20111;-76
2022/03/07 00:21:21;;;;;;;9.65;8.48;;;;;;;;;;4843673;29;20052;-84
2022/03/07 00:23:49;;;;;;;13.45;11.65;;;;;;;;;;4843773;29;20062;-84
2022/03/07 00:26:17;;;;;;;14.63;8.05;;;;;;;;;;4813348;29;20050;-76
2022/03/07 00:28:46;;;;;;;13.77;9.98;;;;;;;;;;4860235;29;20059;-76
2022/03/07 00:31:14;;;;;;;11.43;8.68;;;;;;;;;;4860512;29;20054;-76
2022/03/07 00:33:42;;;;;;;10.07;8.93;;;;;;;;;;4827566;29;20049;-77
2022/03/07 00:36:10;;;;;;;12.35;10.00;;;;;;;;;;4842938;29;20510;-76
2022/03/07 00:38:38;;;;;;;16.92;9.93;;;;;;;;;;4843483;29;20060;-76
2022/03/07 00:41:11;;;;;;;12.90;9.32;;;;;;;;;;4826957;29;20395;-76
2022/03/07 00:43:39;;;;;;;12.82;9.00;;;;;;;;;;4843157;29;20049;-77
2022/03/07 00:46:09;;;;;;;11.82;9.75;;;;;;;;;;4842907;29;20045;-76
2022/03/07 00:48:37;;;;;;;13.88;9.52;;;;;;;;;;4842736;29;20068;-76
2022/03/07 00:51:05;;;;;;;13.25;9.30;;;;;;;;;;4842663;29;20054;-76
2022/03/07 00:53:33;;;;;;;10.32;8.15;;;;;;;;;;4842951;29;20042;-76
2022/03/07 00:56:01;;;;;;;10.20;8.18;;;;;;;;;;4842025;29;20052;-76
2022/03/07 00:58:31;;;;;;;17.92;10.20;;;;;;;;;;4843136;29;20057;-76
2022/03/07 01:00:59;;;;;;;13.57;10.68;;;;;;;;;;4859581;29;20054;-76
2022/03/07 01:03:27;;;;;;;13.82;9.57;;;;;;;;;;4860063;29;20079;-76
2022/03/07 01:05:56;;;;;;;14.75;10.25;;;;;;;;;;4842315;29;20049;-76
2022/03/07 01:08:26;;;;;;;14.95;8.25;;;;;;;;;;4858606;29;20049;-76
2022/03/07 01:10:54;;;;;;;10.38;8.23;;;;;;;;;;4842127;29;20056;-76
2022/03/07 01:13:22;;;;;;;13.07;10.95;;;;;;;;;;4842233;29;20068;-76
2022/03/07 01:15:50;;;;;;;14.10;12.05;;;;;;;;;;4859064;29;20057;-76
2022/03/07 01:18:19;;;;;;;9.60;8.77;;;;;;;;;;4854850;29;20062;-76
2022/03/07 01:20:47;;;;;;;11.93;10.85;;;;;;;;;;4839049;29;20050;-76
2022/03/07 01:23:15;;;;;;;18.20;10.43;;;;;;;;;;4841482;29;20053;-76
2022/03/07 01:25:43;;;;;;;10.77;8.90;;;;;;;;;;4839390;29;20068;-76
2022/03/07 01:28:11;;;;;;;17.13;9.88;;;;;;;;;;4857882;29;20064;-76
2022/03/07 01:30:40;;;;;;;15.93;8.82;;;;;;;;;;4842313;29;20048;-76
2022/03/07 01:33:09;;;;;;;14.02;11.88;;;;;;;;;;4842561;29;20053;-76
2022/03/07 01:35:37;;;;;;;11.95;10.68;;;;;;;;;;4842496;29;20054;-76
2022/03/07 01:38:05;;;;;;;11.27;9.68;;;;;;;;;;4857510;29;20052;-76
2022/03/07 01:40:34;;;;;;;16.75;9.45;;;;;;;;;;4840961;29;20407;-76
2022/03/07 01:43:02;;;;;;;12.18;9.68;;;;;;;;;;4859292;29;20072;-76
2022/03/07 01:45:30;;;;;;;13.50;10.02;;;;;;;;;;4811652;29;20567;-76
2022/03/07 01:47:58;;;;;;;12.02;8.35;;;;;;;;;;4858281;29;20057;-76
2022/03/07 01:50:28;;;;;;;14.00;9.52;;;;;;;;;;4842268;29;20053;-76
2022/03/07 01:52:56;;;;;;;12.35;9.70;;;;;;;;;;4858445;29;20419;-76
2022/03/07 01:55:25;;;;;;;9.77;8.10;;;;;;;;;;4825993;29;20045;-76
2022/03/07 01:57:57;;;;;;;18.77;8.77;;;;;;;;;;4839276;29;20519;-76
2022/03/07 02:00:26;;;;;;;14.23;8.95;;;;;;;;;;4826739;29;20053;-76
2022/03/07 02:02:55;;;;;;;12.35;8.48;;;;;;;;;;4842079;29;20049;-76
2022/03/07 02:05:31;;;;;;;13.48;10.15;;;;;;;;;;4841653;29;20053;-76
2022/03/07 02:08:04;;;;;;;14.48;11.43;;;;;;;;;;4857717;29;20419;-76
2022/03/07 02:10:42;;;;;;;15.23;9.88;;;;;;;;;;4841313;29;20132;-76
2022/03/07 02:13:14;;;;;;;18.20;8.75;;;;;;;;;;4841631;29;20057;-76
2022/03/07 02:15:52;;;;;;;11.88;9.80;;;;;;;;;;4841445;29;20499;-76
2022/03/07 02:18:22;;;;;;;14.88;10.15;;;;;;;;;;4842121;29;20050;-76
2022/03/07 02:20:53;;;;;;;14.13;9.77;;;;;;;;;;4841108;29;20503;-76
2022/03/07 02:23:20;;;;;;;11.35;9.35;;;;;;;;;;4858592;29;20057;-76
2022/03/07 02:25:49;;;;;;;13.55;9.30;;;;;;;;;;4840496;29;20431;-76
2022/03/07 02:28:17;;;;;;;13.70;9.75;;;;;;;;;;4841079;29;20062;-76
2022/03/07 02:30:46;;;;;;;10.63;8.27;;;;;;;;;;4841721;29;20057;-76
2022/03/07 02:33:14;;;;;;;15.48;10.20;;;;;;;;;;4841485;29;20061;-76
2022/03/07 02:35:44;;;;;;;20.13;8.98;;;;;;;;;;4841111;29;20395;-76
2022/03/07 02:38:14;;;;;;;9.82;8.82;;;;;;;;;;4841295;29;20411;-76
2022/03/07 02:40:46;;;;;;;19.65;10.88;;;;;;;;;;4839867;29;20045;-85
2022/03/07 02:43:19;;;;;;;13.55;9.75;;;;;;;;;;4841816;29;20416;-85
2022/03/07 02:45:48;;;;;;;17.13;10.27;;;;;;;;;;4840906;29;20049;-89
2022/03/07 02:48:16;;;;;;;11.55;10.32;;;;;;;;;;4840935;29;20049;-87
2022/03/07 02:50:45;;;;;;;11.38;9.80;;;;;;;;;;4810920;29;20060;-87
2022/03/07 02:53:14;;;;;;;20.88;12.50;;;;;;;;;;4825731;29;20046;-88
2022/03/07 02:55:42;;;;;;;11.05;9.75;;;;;;;;;;4840651;29;20061;-87
2022/03/07 02:58:10;;;;;;;15.57;11.25;;;;;;;;;;4858068;29;20053;-88
2022/03/07 03:00:38;;;;;;;10.40;8.27;;;;;;;;;;4857431;29;20053;-87
2022/03/07 03:03:06;;;;;;;11.38;10.40;;;;;;;;;;4841519;29;20057;-88
2022/03/07 03:05:35;;;;;;;11.27;9.93;;;;;;;;;;4810359;29;20060;-88
2022/03/07 03:08:03;;;;;;;15.73;11.30;;;;;;;;;;4825641;29;20491;-88
2022/03/07 03:10:31;;;;;;;12.13;9.57;;;;;;;;;;4857137;29;20538;-88
2022/03/07 03:12:59;;;;;;;11.35;9.20;;;;;;;;;;4857160;29;20045;-87
2022/03/07 03:15:27;;;;;;;13.07;10.50;;;;;;;;;;4858085;29;20058;-88
2022/03/07 03:17:55;;;;;;;12.90;9.38;;;;;;;;;;4840531;29;20046;-89
2022/03/07 03:20:23;;;;;;;10.63;8.38;;;;;;;;;;4840146;29;20045;-88
2022/03/07 03:23:09;;;;;;;15.20;12.68;;;;;;;;;;4851859;29;20046;-88
2022/03/07 03:26:24;;;;;;;10.93;8.85;;;;;;;;;;4821253;29;20069;-87
2022/03/07 03:29:42;;;;;;;8.70;7.82;;;;;;;;;;4826318;29;20042;-87
2022/03/07 03:33:03;;;;;;;17.10;9.27;;;;;;;;;;4824365;29;20048;-87
2022/03/07 03:35:36;;;;;;;14.32;9.18;;;;;;;;;;4840838;29;20373;-88
2022/03/07 03:38:05;;;;;;;12.65;10.55;;;;;;;;;;4825154;29;20056;-89
2022/03/07 03:40:33;;;;;;;19.73;10.50;;;;;;;;;;4840145;29;20065;-88
2022/03/07 03:43:01;;;;;;;15.15;11.70;;;;;;;;;;4826181;29;20041;-83
2022/03/07 03:45:29;;;;;;;20.92;13.07;;;;;;;;;;4810313;29;20053;-84
2022/03/07 03:47:57;;;;;;;13.13;10.77;;;;;;;;;;4840369;29;20472;-84
2022/03/07 03:50:25;;;;;;;21.55;12.60;;;;;;;;;;4857123;29;20046;-84
2022/03/07 03:52:53;;;;;;;17.13;11.90;;;;;;;;;;4840753;29;20062;-83
2022/03/07 03:55:21;;;;;;;14.77;10.52;;;;;;;;;;4838301;29;20057;-83
2022/03/07 03:57:49;;;;;;;11.90;10.70;;;;;;;;;;4860170;29;20049;-83
2022/03/07 04:00:18;;;;;;;18.63;12.38;;;;;;;;;;4828696;29;20060;-83
2022/03/07 04:02:46;;;;;;;14.68;11.77;;;;;;;;;;4860933;29;20053;-84
2022/03/07 04:05:15;;;;;;;19.98;12.55;;;;;;;;;;4843600;29;20049;-84
2022/03/07 04:07:44;;;;;;;19.10;11.50;;;;;;;;;;4843437;29;20050;-83
2022/03/07 04:10:13;;;;;;;18.13;11.77;;;;;;;;;;4859880;29;20065;-83
2022/03/07 04:12:42;;;;;;;14.57;9.38;;;;;;;;;;4843944;29;20053;-84
2022/03/07 04:15:10;;;;;;;15.57;9.25;;;;;;;;;;4860625;29;20396;-84
2022/03/07 04:17:39;;;;;;;19.10;13.65;;;;;;;;;;4859950;29;20053;-83
2022/03/07 04:20:07;;;;;;;22.15;11.93;;;;;;;;;;4859760;29;20049;-83
2022/03/07 04:22:37;;;;;;;15.38;10.15;;;;;;;;;;4860202;29;20054;-83
2022/03/07 04:25:06;;;;;;;13.15;11.43;;;;;;;;;;4859430;29;20061;-84
2022/03/07 04:27:34;;;;;;;8.57;6.53;;;;;;;;;;4828463;29;20407;-83
2022/03/07 04:30:04;;;;;;;17.60;11.50;;;;;;;;;;4860105;29;20542;-83
2022/03/07 04:32:36;;;;;;;16.63;9.70;;;;;;;;;;4860103;29;20068;-83
2022/03/07 04:35:07;;;;;;;12.43;9.95;;;;;;;;;;4860174;29;20057;-84
2022/03/07 04:37:39;;;;;;;16.60;9.70;;;;;;;;;;4843146;29;20078;-83
2022/03/07 04:40:07;;;;;;;;;;;;;;;;;;4842917;29;20381;-84
2022/03/07 04:42:35;;;;;;;13.65;8.57;;;;;;;;;;4843991;29;19928;-83
2022/03/07 04:45:03;;;;;;;11.05;9.55;;;;;;;;;;4859744;29;20045;-84
2022/03/07 04:47:31;;;;;;;14.30;9.70;;;;;;;;;;4828282;29;20057;-83
2022/03/07 04:49:59;;;;;;;19.80;10.73;;;;;;;;;;4858752;29;20061;-84
2022/03/07 04:52:27;;;;;;;15.07;10.27;;;;;;;;;;4858753;29;20053;-90
2022/03/07 04:54:55;;;;;;;16.75;10.40;;;;;;;;;;4828094;29;20530;-89
2022/03/07 04:57:23;;;;;;;15.57;10.50;;;;;;;;;;4858689;29;20439;-89
2022/03/07 04:59:51;;;;;;;15.95;10.20;;;;;;;;;;4827326;29;20076;-89
2022/03/07 05:02:19;;;;;;;10.80;8.63;;;;;;;;;;4843277;29;20068;-90
2022/03/07 05:04:48;;;;;;;16.55;11.90;;;;;;;;;;4824177;29;20062;-83
2022/03/07 05:07:16;;;;;;;12.68;9.60;;;;;;;;;;4841482;29;20050;-83
2022/03/07 05:09:45;;;;;;;16.25;12.27;;;;;;;;;;4858493;29;20061;-83
2022/03/07 05:12:13;;;;;;;14.68;10.77;;;;;;;;;;4842845;29;20046;-83
2022/03/07 05:14:41;;;;;;;15.00;10.45;;;;;;;;;;4843148;29;20399;-83
2022/03/07 05:17:09;;;;;;;16.88;11.52;;;;;;;;;;4859410;29;20535;-83
2022/03/07 05:19:37;;;;;;;12.25;10.13;;;;;;;;;;4827370;29;20050;-83
2022/03/07 05:22:05;;;;;;;11.40;9.55;;;;;;;;;;4858702;29;20049;-83
2022/03/07 05:24:33;;;;;;;10.85;8.70;;;;;;;;;;4858630;29;20060;-83
2022/03/07 05:27:01;;;;;;;18.05;13.73;;;;;;;;;;4827425;29;20392;-84
2022/03/07 05:29:29;;;;;;;17.08;11.23;;;;;;;;;;4825372;29;20421;-84
2022/03/07 05:31:57;;;;;;;12.48;8.93;;;;;;;;;;4842483;29;20045;-84
2022/03/07 05:34:25;;;;;;;10.55;8.88;;;;;;;;;;4812663;29;20053;-82
2022/03/07 05:36:53;;;;;;;17.23;10.00;;;;;;;;;;4842201;29;20080;-83
2022/03/07 05:39:21;;;;;;;10.75;8.82;;;;;;;;;;4827560;29;20389;-82
2022/03/07 05:41:49;;;;;;;16.70;12.52;;;;;;;;;;4841141;29;20049;-84
2022/03/07 05:44:17;;;;;;;17.88;10.23;;;;;;;;;;4827204;29;20057;-84
2022/03/07 05:46:45;;;;;;;14.07;8.93;;;;;;;;;;4812169;29;20061;-84
2022/03/07 05:49:13;;;;;;;11.18;9.68;;;;;;;;;;4841422;29;20608;-84
2022/03/07 05:51:43;;;;;;;15.43;9.75;;;;;;;;;;4841453;29;20073;-84
2022/03/07 05:54:12;;;;;;;11.35;9.25;;;;;;;;;;4858986;29;20058;-83
2022/03/07 05:56:39;;;;;;;16.90;11.63;;;;;;;;;;4837428;29;20046;-82
2022/03/07 05:59:08;;;;;;;13.35;9.82;;;;;;;;;;4835101;29;20048;-81
2022/03/07 06:01:36;;;;;;;9.52;8.32;;;;;;;;;;4855826;29;20060;-84
2022/03/07 06:04:04;;;;;;;13.00;9.32;;;;;;;;;;4842107;29;20045;-83
2022/03/07 06:06:32;;;;;;;14.13;10.27;;;;;;;;;;4852769;29;20049;-81
2022/03/07 06:09:00;;;;;;;13.70;10.68;;;;;;;;;;4838268;29;20443;-80
2022/03/07 06:11:28;;;;;;;8.48;7.53;;;;;;;;;;4853188;29;20061;-81
2022/03/07 06:13:56;;;;;;;13.38;9.15;;;;;;;;;;4840922;29;20051;-80
2022/03/07 06:16:24;;;;;;;16.27;10.63;;;;;;;;;;4835069;29;20060;-82
2022/03/07 06:18:52;;;;;;;14.70;11.27;;;;;;;;;;4841004;29;20151;-79
2022/03/07 06:21:20;;;;;;;9.93;8.68;;;;;;;;;;4841062;29;20063;-79
2022/03/07 06:23:48;;;;;;;12.07;9.45;;;;;;;;;;4841125;29;20065;-82
2022/03/07 06:26:16;;;;;;;13.98;9.25;;;;;;;;;;4845383;29;20065;-84
2022/03/07 06:29:00;;;;;;;;;;;;;;;;;;4841287;29;20084;-81
2022/03/07 06:31:30;;;;;;;13.00;7.68;;;;;;;;;;4858118;29;19935;-80
2022/03/07 06:33:58;;;;;;;12.40;8.82;;;;;;;;;;4857596;29;20065;-82
2022/03/07 06:36:26;;;;;;;8.73;7.55;;;;;;;;;;4840986;29;20058;-81
2022/03/07 06:38:54;;;;;;;9.98;6.78;;;;;;;;;;4857897;29;20050;-82
2022/03/07 06:41:22;;;;;;;12.23;8.15;;;;;;;;;;4856760;29;20057;-81
2022/03/07 06:43:50;;;;;;;12.05;10.32;;;;;;;;;;4839962;29;20057;-82
2022/03/07 06:46:18;;;;;;;8.13;7.32;;;;;;;;;;4858970;29;20057;-80
2022/03/07 06:48:47;;;;;;;11.93;9.93;;;;;;;;;;4855112;29;20045;-82
2022/03/07 06:51:14;;;;;;;8.18;7.28;;;;;;;;;;4849538;29;20061;-81
2022/03/07 06:53:42;;;;;;;11.77;9.43;;;;;;;;;;4856887;29;20046;-81
2022/03/07 06:56:11;;;;;;;15.80;9.15;;;;;;;;;;4849225;29;20132;-81
2022/03/07 06:58:39;;;;;;;12.02;9.38;;;;;;;;;;4849774;29;20061;-83
2022/03/07 07:01:07;;;;;;;14.90;10.32;;;;;;;;;;4856140;29;20399;-82
2022/03/07 07:03:35;;;;;;;11.50;10.38;;;;;;;;;;4851535;29;20057;-82
2022/03/07 07:06:03;;;;;;;12.23;8.70;;;;;;;;;;4841416;29;20068;-82
2022/03/07 07:08:31;;;;;;;15.52;12.05;;;;;;;;;;4852897;29;20046;-82
2022/03/07 07:10:59;;;;;;;6.07;5.50;;;;;;;;;;4856030;29;20052;-82
2022/03/07 07:13:27;;;;;;;5.38;4.95;;;;;;;;;;4850665;29;20054;-82
2022/03/07 07:15:55;;;;;;;9.73;6.32;;;;;;;;;;4855572;29;20053;-82
2022/03/07 07:18:24;;;;;;;12.73;9.25;;;;;;;;;;4852872;29;20708;-82
2022/03/07 07:20:53;;;;;;;12.00;9.23;;;;;;;;;;4853336;29;20057;-83
2022/03/07 07:23:21;;;;;;;10.25;8.48;;;;;;;;;;4857662;29;20049;-83
2022/03/07 07:25:50;;;;;;;9.85;7.35;;;;;;;;;;4856950;29;20057;-82
2022/03/07 07:28:18;;;;;;;23.65;11.57;;;;;;;;;;4842737;29;20057;-83
2022/03/07 07:30:46;;;;;;;10.85;9.50;;;;;;;;;;4859682;29;20084;-83
2022/03/07 07:33:14;;;;;;;19.17;10.38;;;;;;;;;;4860646;29;20049;-84
2022/03/07 07:35:43;;;;;;;15.68;11.57;;;;;;;;;;4842636;29;20049;-83
2022/03/07 07:38:11;;;;;;;14.10;8.63;;;;;;;;;;4830632;29;20057;-85
2022/03/07 07:40:39;;;;;;;11.60;9.90;;;;;;;;;;4843067;29;20053;-83
2022/03/07 07:43:08;;;;;;;10.18;8.07;;;;;;;;;;4844635;29;20057;-85
2022/03/07 07:45:38;;;;;;;10.18;7.90;;;;;;;;;;4827621;29;20044;-85
2022/03/07 07:48:06;;;;;;;7.15;6.43;;;;;;;;;;4828510;29;20061;-84
2022/03/07 07:50:34;;;;;;;15.43;9.07;;;;;;;;;;4808062;29;20512;-84
2022/03/07 07:53:02;;;;;;;12.45;9.55;;;;;;;;;;4831941;29;20597;-84
2022/03/07 07:55:30;;;;;;;11.35;9.18;;;;;;;;;;4844109;29;20511;-84
2022/03/07 07:57:58;;;;;;;7.95;7.30;;;;;;;;;;4846672;29;20046;-84
2022/03/07 08:00:27;;;;;;;15.23;11.13;;;;;;;;;;4832313;29;20058;-85
2022/03/07 08:02:55;;;;;;;23.65;8.90;;;;;;;;;;4844211;29;20057;-84
2022/03/07 08:05:23;;;;;;;15.05;10.98;;;;;;;;;;4807185;29;20050;-82
2022/03/07 08:07:51;;;;;;;19.20;11.43;;;;;;;;;;4825024;29;20058;-82
2022/03/07 08:10:20;;;;;;;9.10;7.35;;;;;;;;;;4827963;29;20050;-82
2022/03/07 08:12:48;;;;;;;12.27;9.50;;;;;;;;;;4841702;29;20045;-82
2022/03/07 08:15:19;;;;;;;8.52;7.22;;;;;;;;;;4858812;29;20234;-82
2022/03/07 08:17:51;;;;;;;17.60;15.60;;;;;;;;;;4844039;29;20064;-82
2022/03/07 08:20:21;;;;;;;17.30;11.48;;;;;;;;;;4859733;29;20050;-81
2022/03/07 08:22:51;;;;;;;12.77;8.35;;;;;;;;;;4843167;29;20054;-81
2022/03/07 08:25:19;;;;;;;13.30;11.88;;;;;;;;;;4843232;29;20049;-81
2022/03/07 08:27:48;;;;;;;16.65;9.18;;;;;;;;;;4860219;29;20049;-82
2022/03/07 08:30:19;;;;;;;18.42;8.98;;;;;;;;;;4861144;29;20399;-83
2022/03/07 08:32:47;;;;;;;16.50;13.57;;;;;;;;;;4859507;29;20060;-82
2022/03/07 08:35:16;;;;;;;14.25;8.50;;;;;;;;;;4858794;29;20053;-81
2022/03/07 08:37:45;;;;;;;10.00;9.00;;;;;;;;;;4859254;29;20420;-81
2022/03/07 08:40:15;;;;;;;14.27;12.82;;;;;;;;;;4842405;29;20534;-81
2022/03/07 08:42:44;;;;;;;22.17;18.38;;;;;;;;;;4860746;29;20060;-81
2022/03/07 08:45:18;;;;;;;31.00;23.38;;;;;;;;;;4842511;29;20551;-81
2022/03/07 08:47:46;;;;;;;10.82;9.40;;;;;;;;;;4828173;29;20057;-81
2022/03/07 08:50:17;;;;;;;14.85;8.18;;;;;;;;;;4843261;29;20065;-81
2022/03/07 08:52:46;;;;;;;17.23;9.73;;;;;;;;;;4827666;29;20438;-82
2022/03/07 08:55:15;;;;;;;10.30;9.35;;;;;;;;;;4827823;29;20053;-82
2022/03/07 08:57:43;;;;;;;9.90;7.53;;;;;;;;;;4859352;29;20058;-81
2022/03/07 09:00:12;;;;;;;9.98;8.77;;;;;;;;;;4843259;29;20034;-81
2022/03/07 09:02:47;;;;;;;18.63;12.15;;;;;;;;;;4843603;29;20076;-80
2022/03/07 09:05:16;;;;;;;22.45;14.75;;;;;;;;;;4843871;29;20459;-81
2022/03/07 09:07:44;;;;;;;9.27;7.95;;;;;;;;;;4842826;29;20060;-81
2022/03/07 09:10:13;;;;;;;19.45;16.48;;;;;;;;;;4858995;29;20061;-80
2022/03/07 09:12:41;;;;;;;13.10;10.13;;;;;;;;;;4860508;29;20045;-80
2022/03/07 09:15:10;;;;;;;14.70;9.40;;;;;;;;;;4860862;29;20052;-81
2022/03/07 09:17:38;;;;;;;15.32;10.05;;;;;;;;;;4859583;29;20053;-80
2022/03/07 09:20:07;;;;;;;30.33;13.32;;;;;;;;;;4842008;29;20377;-81
2022/03/07 09:22:36;;;;;;;19.35;10.75;;;;;;;;;;4838871;29;20062;-80
2022/03/07 09:25:04;;;;;;;16.40;11.27;;;;;;;;;;4843200;29;20408;-80
2022/03/07 09:27:33;;;;;;;13.40;12.10;;;;;;;;;;4860551;29;20095;-79
2022/03/07 09:30:01;;;;;;;20.48;16.40;;;;;;;;;;4828670;29;20041;-80
2022/03/07 09:32:29;;;;;;;12.18;9.15;;;;;;;;;;4843901;29;20072;-80
2022/03/07 09:34:58;;;;;;;18.20;12.13;;;;;;;;;;4843897;29;20054;-79
2022/03/07 09:37:26;;;;;;;8.90;8.18;;;;;;;;;;4860056;29;20869;-79
2022/03/07 09:39:54;;;;;;;12.75;10.93;;;;;;;;;;4842832;29;20053;-80
2022/03/07 09:42:23;;;;;;;18.33;11.60;;;;;;;;;;4828194;29;20500;-80
2022/03/07 09:44:52;;;;;;;22.42;10.52;;;;;;;;;;4860337;29;20076;-80
2022/03/07 09:47:22;;;;;;;15.38;11.43;;;;;;;;;;4844011;29;20053;-79
2022/03/07 09:49:51;;;;;;;14.25;10.48;;;;;;;;;;4817991;29;20419;-80
2022/03/07 09:52:19;;;;;;;16.48;12.27;;;;;;;;;;4851280;29;20499;-80
2022/03/07 09:54:47;;;;;;;15.10;12.88;;;;;;;;;;4858065;29;20395;-80
2022/03/07 09:57:16;;;;;;;14.00;12.65;;;;;;;;;;4825483;29;20049;-79
2022/03/07 09:59:44;;;;;;;17.85;13.48;;;;;;;;;;4840638;29;20059;-77
2022/03/07 10:02:18;;;;;;;11.57;10.68;;;;;;;;;;4858849;29;20053;-77
2022/03/07 10:04:46;;;;;;;10.18;8.23;;;;;;;;;;4858602;29;20053;-78
2022/03/07 10:07:17;;;;;;;15.90;9.68;;;;;;;;;;4859689;29;20049;-78
2022/03/07 10:09:46;;;;;;;15.38;11.25;;;;;;;;;;4857707;29;20061;-78
2022/03/07 10:12:14;;;;;;;18.58;12.10;;;;;;;;;;4859250;29;20062;-78
2022/03/07 10:14:44;;;;;;;16.25;10.88;;;;;;;;;;4858987;29;20448;-78
2022/03/07 10:17:24;;;;;;;9.87;7.93;;;;;;;;;;4843453;29;20408;-78
2022/03/07 10:19:54;;;;;;;14.13;11.40;;;;;;;;;;4859136;29;20052;-78
2022/03/07 10:22:24;;;;;;;16.13;14.50;;;;;;;;;;4859001;29;20057;-76
2022/03/07 10:25:00;;;;;;;17.10;13.88;;;;;;;;;;4841711;29;20057;-77
2022/03/07 10:27:29;;;;;;;19.30;13.82;;;;;;;;;;4859054;29;20514;-78
2022/03/07 10:29:57;;;;;;;14.48;13.00;;;;;;;;;;4839801;29;20056;-78
2022/03/07 10:32:25;;;;;;;14.93;12.82;;;;;;;;;;4847551;29;20054;-80
2022/03/07 10:34:53;;;;;;;18.60;11.40;;;;;;;;;;4842189;29;20480;-79
2022/03/07 10:37:36;;;;;;;14.48;10.70;;;;;;;;;;4842560;29;20042;-80
2022/03/07 10:40:08;;;;;;;15.77;14.10;;;;;;;;;;4841039;29;20053;-80
2022/03/07 10:42:44;;;;;;;13.27;11.88;;;;;;;;;;4842047;29;20385;-79
2022/03/07 10:45:12;;;;;;;16.90;12.38;;;;;;;;;;4825771;29;20048;-79
2022/03/07 10:47:40;;;;;;;13.90;11.35;;;;;;;;;;4808946;29;20424;-78
2022/03/07 10:50:09;;;;;;;16.90;11.25;;;;;;;;;;4836592;29;20073;-79
2022/03/07 10:52:38;;;;;;;18.95;12.50;;;;;;;;;;4858019;29;20495;-78
2022/03/07 10:55:07;;;;;;;14.95;13.45;;;;;;;;;;4857833;29;20053;-78
2022/03/07 10:57:36;;;;;;;25.38;20.20;;;;;;;;;;4841651;29;20050;-78
2022/03/07 11:00:09;;;;;;;25.08;19.13;;;;;;;;;;4855952;29;20101;-78
2022/03/07 11:02:41;;;;;;;26.30;17.98;;;;;;;;;;4857960;29;20052;-79
2022/03/07 11:05:10;;;;;;;12.73;9.27;;;;;;;;;;4826406;29;20056;-79
2022/03/07 11:07:40;;;;;;;14.25;12.48;;;;;;;;;;4857998;29;20065;-79
2022/03/07 11:10:09;;;;;;;16.58;12.50;;;;;;;;;;4858818;29;20049;-80
2022/03/07 11:12:37;;;;;;;22.10;12.40;;;;;;;;;;4827181;29;20499;-80
2022/03/07 11:15:08;;;;;;;17.45;12.10;;;;;;;;;;4836531;29;20038;-80
2022/03/07 11:17:41;;;;;;;19.83;13.10;;;;;;;;;;4857304;29;20056;-81
2022/03/07 11:20:12;;;;;;;16.42;10.48;;;;;;;;;;4822235;29;20065;-81
2022/03/07 11:22:44;;;;;;;20.35;13.32;;;;;;;;;;4859495;29;20054;-80
2022/03/07 11:25:16;;;;;;;19.02;16.02;;;;;;;;;;4826479;29;20064;-80
2022/03/07 11:27:45;;;;;;;20.17;18.02;;;;;;;;;;4841302;29;20477;-80
2022/03/07 11:30:14;;;;;;;16.77;12.23;;;;;;;;;;4858258;29;20802;-80
2022/03/07 11:32:42;;;;;;;20.60;12.55;;;;;;;;;;4842043;29;20034;-81
2022/03/07 11:35:11;;;;;;;20.77;12.20;;;;;;;;;;4858497;29;20057;-81
2022/03/07 11:37:39;;;;;;;18.70;11.23;;;;;;;;;;4858658;29;20501;-80
2022/03/07 11:40:17;;;;;;;10.38;9.35;;;;;;;;;;4841569;29;20416;-80
2022/03/07 11:42:46;;;;;;;14.77;12.57;;;;;;;;;;4858466;29;20488;-81
2022/03/07 11:45:18;;;;;;;18.75;10.88;;;;;;;;;;4839775;29;20408;-80
2022/03/07 11:47:47;;;;;;;15.55;12.43;;;;;;;;;;4826562;29;20057;-81
2022/03/07 11:50:18;;;;;;;17.85;10.75;;;;;;;;;;4829851;29;20054;-81
2022/03/07 11:52:46;;;;;;;17.77;15.90;;;;;;;;;;4851601;29;20050;-80
2022/03/07 11:55:16;;;;;;;19.13;10.48;;;;;;;;;;4858609;29;20050;-80
2022/03/07 11:57:45;;;;;;;14.25;9.75;;;;;;;;;;4842154;29;20400;-80
2022/03/07 12:00:13;;;;;;;20.92;11.30;;;;;;;;;;4855426;29;20065;-79
2022/03/07 12:02:51;;;;;;;17.02;14.13;;;;;;;;;;4858672;29;20053;-84
2022/03/07 12:06:19;;;;;;;13.13;9.35;;;;;;;;;;4840553;29;20064;-79
2022/03/07 12:08:48;;;;;;;12.10;8.88;;;;;;;;;;4838236;29;20072;-79
2022/03/07 12:11:32;;;;;;;11.63;9.10;;;;;;;;;;4840774;29;20061;-80
2022/03/07 12:14:05;;;;;;;10.82;8.38;;;;;;;;;;4825097;29;20057;-79
2022/03/07 12:16:33;;;;;;;20.80;13.90;;;;;;;;;;4851529;29;20049;-80
2022/03/07 12:19:08;;;;;;;12.60;10.80;;;;;;;;;;4825284;29;20425;-80
2022/03/07 12:21:38;;;;;;;20.42;12.00;;;;;;;;;;4843289;29;20052;-79
2022/03/07 12:24:06;;;;;;;22.30;19.88;;;;;;;;;;4866632;29;20060;-80
2022/03/07 12:26:54;;;;;;;15.20;11.18;;;;;;;;;;4860246;29;20041;-78
2022/03/07 12:29:24;;;;;;;15.27;10.30;;;;;;;;;;4833959;29;20496;-79
2022/03/07 12:31:56;;;;;;;16.20;9.65;;;;;;;;;;4851380;29;20191;-79
2022/03/07 12:34:25;;;;;;;16.95;10.75;;;;;;;;;;4847234;29;20050;-80
2022/03/07 12:37:00;;;;;;;13.18;10.93;;;;;;;;;;4846829;29;20114;-80
2022/03/07 12:39:29;;;;;;;14.15;11.85;;;;;;;;;;4859579;29;20392;-80
2022/03/07 12:42:01;;;;;;;13.45;10.30;;;;;;;;;;4852875;29;20060;-80
2022/03/07 12:44:30;;;;;;;17.35;11.40;;;;;;;;;;4860263;29;20049;-80
2022/03/07 12:46:58;;;;;;;14.25;10.30;;;;;;;;;;4860341;29;20065;-80
2022/03/07 12:49:26;;;;;;;8.73;7.72;;;;;;;;;;4853623;29;20076;-81
2022/03/07 12:51:54;;;;;;;16.92;10.20;;;;;;;;;;4842019;29;20054;-79
2022/03/07 12:54:29;;;;;;;13.63;12.27;;;;;;;;;;4859563;29;20045;-79
2022/03/07 12:56:57;;;;;;;16.10;9.93;;;;;;;;;;4860717;29;20045;-81
2022/03/07 12:59:29;;;;;;;13.23;8.82;;;;;;;;;;4858699;29;20053;-81
2022/03/07 13:01:57;;;;;;;17.38;12.00;;;;;;;;;;4846502;29;20072;-82
2022/03/07 13:04:27;;;;;;;10.35;8.00;;;;;;;;;;4857430;29;20056;-81
2022/03/07 13:06:55;;;;;;;11.50;10.07;;;;;;;;;;4859299;29;20058;-81
2022/03/07 13:09:28;;;;;;;12.00;10.45;;;;;;;;;;4859544;29;20076;-82
2022/03/07 13:11:57;;;;;;;15.80;10.50;;;;;;;;;;4813789;29;20050;-81
2022/03/07 13:14:26;;;;;;;11.40;10.15;;;;;;;;;;4861358;29;20054;-81
2022/03/07 13:16:54;;;;;;;15.98;9.48;;;;;;;;;;4844299;29;20060;-81
2022/03/07 13:19:23;;;;;;;17.50;9.93;;;;;;;;;;4832396;29;20052;-81
2022/03/07 13:21:52;;;;;;;14.70;11.05;;;;;;;;;;4841816;29;20070;-81
2022/03/07 13:24:21;;;;;;;12.32;7.95;;;;;;;;;;4844578;29;20092;-83
2022/03/07 13:27:03;;;;;;;11.88;10.13;;;;;;;;;;4842485;29;20080;-83
2022/03/07 13:29:32;;;;;;;15.43;10.32;;;;;;;;;;4836299;29;20467;-85
2022/03/07 13:32:04;;;;;;;17.63;14.48;;;;;;;;;;4827007;29;20057;-82
2022/03/07 13:34:44;;;;;;;9.43;8.52;;;;;;;;;;4842639;29;20076;-81
2022/03/07 13:37:20;;;;;;;27.65;11.85;;;;;;;;;;4841761;29;20057;-81
2022/03/07 13:40:01;;;;;;;11.40;9.00;;;;;;;;;;4841900;29;20053;-82
2022/03/07 13:42:36;;;;;;;15.60;10.35;;;;;;;;;;4827830;29;20690;-83
2022/03/07 13:45:05;;;;;;;17.85;12.40;;;;;;;;;;4811672;29;20053;-82
2022/03/07 13:47:33;;;;;;;12.38;8.35;;;;;;;;;;4826493;29;20049;-85
2022/03/07 13:50:04;;;;;;;11.05;8.95;;;;;;;;;;4815816;29;20056;-83
2022/03/07 13:52:35;;;;;;;13.50;10.17;;;;;;;;;;4824388;29;20603;-81
2022/03/07 13:55:15;;;;;;;14.30;10.93;;;;;;;;;;4833989;29;20053;-82
2022/03/07 13:57:44;;;;;;;20.48;12.50;;;;;;;;;;4834579;29;20053;-81
2022/03/07 14:00:17;;;;;;;18.67;12.00;;;;;;;;;;4846584;29;20053;-82
2022/03/07 14:02:46;;;;;;;11.52;10.02;;;;;;;;;;4819845;29;20054;-81
2022/03/07 14:05:15;;;;;;;12.55;9.45;;;;;;;;;;4800801;29;20045;-81
2022/03/07 14:07:53;;;;;;;17.35;11.60;;;;;;;;;;4856281;29;20068;-81
2022/03/07 14:10:41;;;;;;;13.75;12.20;;;;;;;;;;4856933;29;20065;-81
2022/03/07 14:13:10;;;;;;;7.80;7.00;;;;;;;;;;4856702;29;20060;-81
2022/03/07 14:15:39;;;;;;;13.82;10.48;;;;;;;;;;4859017;29;20392;-81
2022/03/07 14:18:11;;;;;;;10.57;9.63;;;;;;;;;;4857788;29;20060;-81
2022/03/07 14:20:43;;;;;;;11.80;9.02;;;;;;;;;;4826181;29;20061;-82
2022/03/07 14:23:18;;;;;;;17.77;10.63;;;;;;;;;;4857359;29;20057;-82
2022/03/07 14:25:46;;;;;;;20.33;11.25;;;;;;;;;;4857595;29;20061;-81
2022/03/07 14:28:14;;;;;;;11.02;9.45;;;;;;;;;;4826620;29;20053;-82
2022/03/07 14:30:53;;;;;;;12.35;9.85;;;;;;;;;;4840935;29;20515;-84
2022/03/07 14:33:21;;;;;;;17.73;11.80;;;;;;;;;;4841662;29;20046;-83
2022/03/07 14:35:55;;;;;;;15.13;12.95;;;;;;;;;;4857883;29;20053;-87
2022/03/07 14:38:24;;;;;;;14.15;10.65;;;;;;;;;;4811789;29;20068;-84
2022/03/07 14:40:59;;;;;;;16.00;11.50;;;;;;;;;;4811469;29;20060;-82
2022/03/07 14:43:30;;;;;;;10.80;9.77;;;;;;;;;;4841552;29;20053;-80